Latest Weather Observations for Maryborough

IDQ60801

Issued at 5:02 am EST Monday 20 April 2015 (issued every 30 minutes, with the page automatically refreshed every 10 minutes)

About weather observations | Map of weather stations | Latest weather observations for QLD | Other Formats
Station Details ID: 040126 Name: MARYBOROUGH Lat: -25.52 Lon: 152.72 Height: 10.28 m
Data from the previous 72 hours. | See also: Recent months at Maryborough
Date/Time
EST
Temp
°C
App
Temp
°C
Dew
Point
Rel
Hum
%
Delta-T
°C
Wind Press
QNH
hPa
Press
MSL
hPa
Rain
since 9 am
mm
Dir
 
Spd
km/h
Gust
km/h
Spd
kts
Gust
kts
20/05:00am 20.0 21.5 19.0 94 0.6 SSW 9 11 5 6 1016.5 - 1.6
20/04:30am 19.9 21.3 18.7 93 0.7 S 9 11 5 6 1016.2 - 1.6
20/04:00am 20.6 21.5 19.3 92 0.8 SW 13 19 7 10 1016.5 - 1.6
20/03:30am 20.6 22.0 19.6 94 0.6 SSW 11 15 6 8 1016.5 - 1.6
20/03:00am 20.5 22.7 19.7 95 0.5 SW 7 11 4 6 1016.5 1016.4 1.6
20/02:30am 20.5 22.8 19.8 96 0.4 SSW 7 9 4 5 1016.7 - 1.6
20/02:00am 20.1 22.4 19.4 96 0.4 SW 6 7 3 4 1016.7 - 1.6
20/01:30am 20.1 22.8 19.4 96 0.4 SW 4 6 2 3 1017.3 - 1.6
20/01:17am 20.2 23.3 19.5 96 0.4 SW 2 7 1 4 1017.5 - 1.6
20/01:00am 19.6 22.8 18.8 95 0.5 CALM 0 0 0 0 1017.5 - 1.6
20/12:30am 19.8 22.6 18.8 94 0.6 SW 2 7 1 4 1017.4 - 1.6
20/12:11am 20.1 22.5 18.9 93 0.8 SW 4 6 2 3 1017.3 - 1.6
20/12:00am 20.2 22.3 19.0 93 0.8 WSW 6 7 3 4 1017.3 1017.2 1.6
 
Date/Time
EST
Temp
°C
App
Temp
°C
Dew
Point
Rel
Hum
%
Delta-T
°C
Wind Press
QNH
hPa
Press
MSL
hPa
Rain
since 9 am
mm
Dir
 
Spd
km/h
Gust
km/h
Spd
kts
Gust
kts
19/11:30pm 20.6 22.4 19.6 94 0.6 SW 9 13 5 7 1017.9 - 1.6
19/11:00pm 20.7 23.0 19.9 95 0.5 SW 7 9 4 5 1017.9 - 1.6
19/10:30pm 20.0 22.6 19.2 95 0.5 S 4 6 2 3 1017.9 - 1.6
19/10:16pm 19.8 21.3 18.8 94 0.6 S 9 11 5 6 1018.0 - 1.6
19/10:00pm 20.1 23.5 19.3 95 0.5 CALM 0 0 0 0 1018.4 - 1.6
19/09:38pm 19.8 22.9 18.6 93 0.7 CALM 0 0 0 0 1018.3 - 1.6
19/09:30pm 20.3 23.7 19.3 94 0.6 CALM 0 0 0 0 1018.3 - 1.6
19/09:29pm 20.3 23.8 19.5 95 0.5 CALM 0 0 0 0 1018.3 - 1.6
19/09:00pm 20.2 23.2 19.2 94 0.6 NE 2 7 1 4 1017.9 1017.8 1.6
19/08:59pm 20.3 23.3 19.3 94 0.6 NE 2 7 1 4 1017.9 - 1.6
19/08:30pm 20.5 23.8 19.2 92 0.8 CALM 0 0 0 0 1018.1 - 1.6
19/08:00pm 20.8 24.1 19.1 90 1.1 CALM 0 0 0 0 1018.3 - 1.6
19/07:30pm 21.6 25.2 19.7 89 1.2 CALM 0 0 0 0 1017.9 - 1.6
19/07:00pm 22.3 25.0 20.2 88 1.4 NE 6 7 3 4 1017.4 - 1.6
19/06:30pm 22.3 24.7 19.7 85 1.7 NE 6 9 3 5 1017.0 - 1.6
19/06:00pm 23.2 25.6 20.0 82 2.1 NE 7 9 4 5 1016.8 1016.7 1.6
19/05:30pm 23.6 25.9 19.9 80 2.4 NE 7 11 4 6 1016.7 - 1.6
19/05:00pm 24.6 26.6 19.9 75 3.0 NE 9 13 5 7 1016.7 - 1.6
19/04:30pm 25.4 27.2 19.5 70 3.8 ENE 9 15 5 8 1016.1 - 1.6
19/04:00pm 25.8 27.4 19.2 67 4.2 E 9 13 5 7 1016.0 - 1.6
19/03:30pm 26.2 27.1 19.3 65 4.4 E 13 19 7 10 1016.0 - 1.6
19/03:00pm 26.4 27.6 19.8 67 4.3 ENE 13 20 7 11 1016.0 1015.9 1.6
19/02:30pm 26.9 28.8 20.5 68 4.2 E 11 13 6 7 1016.2 - 1.6
19/02:00pm 25.3 27.6 21.4 79 2.6 E 11 15 6 8 1016.2 - 1.6
19/01:59pm 25.2 27.3 20.9 77 2.8 E 11 15 6 8 1016.2 - 1.6
19/01:42pm 24.7 26.4 19.3 72 3.5 NNW 9 15 5 8 1016.7 - 1.2
19/01:30pm 26.1 28.1 20.0 69 4.0 ENE 9 19 5 10 1016.9 - 0.0
19/01:00pm 27.5 29.6 19.3 61 5.3 NE 7 9 4 5 1016.9 - 0.0
19/12:30pm 26.7 28.1 18.6 61 5.2 NNE 9 13 5 7 1017.2 - 0.0
19/12:00pm 27.2 28.4 18.2 58 5.7 ENE 9 13 5 7 1017.6 1017.5 0.0
19/11:30am 28.7 30.4 18.5 54 6.5 NNW 7 13 4 7 1018.1 - 0.0
19/11:00am 27.2 29.1 19.0 61 5.3 E 7 13 4 7 1018.6 - 0.0
19/10:30am 27.4 29.6 19.2 61 5.3 N 6 11 3 6 1018.9 - 0.0
19/10:00am 26.7 29.0 18.6 61 5.2 N 4 9 2 5 1019.0 - 0.0
19/09:30am 26.4 28.9 19.8 67 4.3 SE 6 9 3 5 1019.2 - 0.0
19/09:00am 24.7 27.6 19.8 74 3.2 SSE 4 7 2 4 1019.4 1019.3 0.2
19/08:30am 22.4 24.3 18.6 79 2.4 SE 6 9 3 5 1019.4 - 0.2
19/08:00am 20.9 23.4 19.0 89 1.2 SW 4 7 2 4 1019.2 - 0.2
19/07:30am 19.7 21.6 18.5 93 0.7 NE 6 7 3 4 1019.1 - 0.2
19/07:02am 19.9 23.3 19.4 97 0.3 CALM 0 0 0 0 1018.8 - 0.2
19/07:00am 19.7 23.0 19.2 97 0.3 CALM 0 0 0 0 1018.8 - 0.2
19/06:30am 17.3 18.7 16.3 94 0.6 S 4 7 2 4 1018.5 - 0.2
19/06:00am 17.9 19.1 16.9 94 0.6 S 6 7 3 4 1018.1 1018.0 0.2
19/05:30am 18.2 19.9 17.2 94 0.6 S 4 6 2 3 1018.1 - 0.2
19/05:04am 18.9 20.6 18.1 95 0.5 S 6 7 3 4 1017.9 - 0.2
19/05:00am 18.8 20.4 17.8 94 0.6 S 6 7 3 4 1017.9 - 0.2
19/04:30am 18.9 20.0 17.9 94 0.6 S 9 9 5 5 1017.9 - 0.2
19/04:00am 19.2 20.8 18.2 94 0.6 S 7 9 4 5 1017.7 - 0.2
19/03:30am 19.4 20.5 18.1 92 0.8 SSE 9 9 5 5 1018.0 - 0.2
19/03:00am 20.0 21.8 18.7 92 0.8 ENE 7 9 4 5 1018.1 1018.0 0.2
19/02:30am 20.2 22.1 18.9 92 0.8 ENE 7 9 4 5 1018.4 - 0.2
19/02:00am 20.4 22.4 19.2 93 0.8 ENE 7 9 4 5 1018.7 - 0.2
19/01:30am 20.2 22.2 19.2 94 0.6 ENE 7 9 4 5 1019.1 - 0.2
19/01:00am 19.9 21.8 18.9 94 0.6 ENE 7 9 4 5 1019.3 - 0.2
19/12:30am 19.8 21.5 18.6 93 0.7 ENE 7 7 4 4 1019.7 - 0.2
19/12:00am 20.3 22.5 19.1 93 0.8 ENE 6 7 3 4 1019.9 1019.8 0.2
 
Date/Time
EST
Temp
°C
App
Temp
°C
Dew
Point
Rel
Hum
%
Delta-T
°C
Wind Press
QNH
hPa
Press
MSL
hPa
Rain
since 9 am
mm
Dir
 
Spd
km/h
Gust
km/h
Spd
kts
Gust
kts
18/11:30pm 20.5 22.7 19.2 92 0.8 ENE 6 7 3 4 1020.0 - 0.2
18/11:00pm 20.6 22.7 19.3 92 0.8 ENE 7 9 4 5 1020.1 - 0.2
18/10:30pm 20.6 22.8 19.3 92 0.8 ENE 6 7 3 4 1020.1 - 0.2
18/10:00pm 20.6 22.8 19.3 92 0.8 ENE 6 7 3 4 1020.1 - 0.2
18/09:30pm 20.6 22.8 19.1 91 0.9 ENE 6 6 3 3 1020.3 - 0.2
18/09:00pm 20.9 22.9 18.8 88 1.3 ENE 6 7 3 4 1020.3 1020.2 0.2
18/08:30pm 21.7 24.3 19.3 86 1.5 ENE 4 6 2 3 1020.3 - 0.2
18/08:00pm 21.6 23.6 19.2 86 1.5 ENE 7 9 4 5 1019.9 - 0.2
18/07:30pm 22.0 23.9 19.0 83 1.9 ENE 7 9 4 5 1019.6 - 0.2
18/07:00pm 22.9 25.1 19.5 81 2.2 ENE 7 9 4 5 1019.4 - 0.2
18/06:30pm 23.3 25.7 19.7 80 2.3 NE 6 9 3 5 1019.1 - 0.2
18/06:00pm 23.2 25.3 19.4 79 2.4 E 7 9 4 5 1018.8 1018.7 0.2
18/05:30pm 23.7 25.5 18.8 74 3.1 ENE 7 9 4 5 1018.6 - 0.2
18/05:00pm 25.0 26.4 18.7 68 4.0 ENE 9 17 5 9 1018.7 - 0.2
18/04:30pm 25.3 26.3 18.7 67 4.2 ENE 11 15 6 8 1018.5 - 0.2
18/04:00pm 25.6 25.9 17.8 62 4.9 NE 13 17 7 9 1018.2 - 0.2
18/03:30pm 26.1 25.8 18.2 61 5.0 ENE 17 24 9 13 1018.1 - 0.2
18/03:00pm 26.4 26.5 18.3 61 5.1 ENE 15 22 8 12 1018.1 1018.0 0.2
18/02:30pm 27.1 27.4 17.0 54 6.3 ENE 11 17 6 9 1017.9 - 0.2
18/02:00pm 27.8 27.3 17.0 51 6.8 E 15 22 8 12 1018.1 - 0.2
18/01:30pm 27.6 26.3 15.9 49 7.2 E 17 20 9 11 1018.3 - 0.2
18/01:00pm 28.4 27.1 15.7 46 7.8 ENE 17 24 9 13 1018.7 - 0.2
18/12:30pm 28.8 27.6 17.0 49 7.4 E 19 24 10 13 1019.2 - 0.2
18/12:00pm 28.1 27.4 17.3 52 6.8 E 17 24 9 13 1019.8 1019.7 0.2
18/11:30am 28.1 27.3 17.9 54 6.5 ENE 19 24 10 13 1020.3 - 0.2
18/11:00am 26.8 27.9 18.1 59 5.5 ENE 9 17 5 9 1020.9 - 0.2
18/10:30am 25.9 27.4 18.8 65 4.5 E 9 19 5 10 1021.4 - 0.2
18/10:00am 25.4 27.4 20.0 72 3.5 S 9 13 5 7 1021.7 - 0.2
18/09:30am 24.2 26.1 19.7 76 2.9 S 9 11 5 6 1021.8 - 0.2
18/09:00am 23.1 24.7 19.9 82 2.1 SE 11 17 6 9 1021.7 1021.6 2.2
18/08:30am 21.2 22.8 20.0 93 0.8 SSE 11 17 6 9 1021.9 - 2.2
18/08:16am 20.9 22.5 19.9 94 0.6 SSE 11 15 6 8 1021.8 - 2.2
18/08:00am 20.8 22.6 19.6 93 0.8 SE 9 13 5 7 1021.8 - 2.2
18/07:49am 20.7 22.8 19.4 92 0.8 SE 7 13 4 7 1021.7 - 2.2
18/07:30am 20.7 23.9 19.7 94 0.6 S 2 6 1 3 1021.6 - 1.8
18/07:00am 20.0 22.1 19.3 96 0.4 S 7 9 4 5 1021.3 - 1.8
18/06:30am 19.5 21.5 18.7 95 0.5 S 6 7 3 4 1021.2 - 1.8
18/06:00am 19.2 20.9 18.4 95 0.5 S 7 9 4 5 1020.9 1020.8 1.6
18/05:30am 19.2 20.1 18.4 95 0.5 SSE 11 13 6 7 1020.5 - 1.6
18/05:00am 18.9 20.0 17.9 94 0.6 S 9 13 5 7 1020.2 - 1.6
18/04:30am 18.9 20.0 17.9 94 0.6 S 9 11 5 6 1020.1 - 1.6
18/04:00am 19.0 20.0 17.8 93 0.7 S 9 11 5 6 1020.1 - 1.6
18/03:30am 19.6 21.2 18.3 92 0.8 S 7 9 4 5 1020.2 - 1.6
18/03:00am 20.1 22.0 18.9 93 0.8 SSE 7 13 4 7 1020.2 1020.1 1.6
18/02:30am 20.4 23.7 19.2 93 0.8 CALM 0 0 0 0 1020.3 - 1.6
18/02:00am 20.5 21.9 19.5 94 0.6 SSE 11 15 6 8 1020.6 - 1.6
18/01:30am 20.5 21.9 19.5 94 0.6 SSE 11 17 6 9 1020.7 - 1.6
18/01:23am 20.5 21.9 19.5 94 0.6 SSE 11 13 6 7 1020.8 - 1.6
18/01:00am 20.4 21.3 19.2 93 0.8 ESE 13 17 7 9 1021.1 - 1.2
18/12:40am 20.7 21.3 18.6 88 1.3 ESE 13 17 7 9 1021.2 - 0.2
18/12:30am 20.8 21.7 18.4 86 1.5 ESE 11 15 6 8 1021.2 - 0.0
18/12:00am 20.9 21.2 18.8 88 1.3 SE 15 20 8 11 1021.2 1021.1 0.0
 
Date/Time
EST
Temp
°C
App
Temp
°C
Dew
Point
Rel
Hum
%
Delta-T
°C
Wind Press
QNH
hPa
Press
MSL
hPa
Rain
since 9 am
mm
Dir
 
Spd
km/h
Gust
km/h
Spd
kts
Gust
kts
17/11:30pm 20.5 22.2 18.6 89 1.2 S 7 11 4 6 1021.4 - 0.0
17/11:00pm 20.6 22.3 18.4 87 1.4 SSW 7 7 4 4 1021.5 - 0.0
17/10:30pm 20.6 23.0 18.7 89 1.2 SSW 4 9 2 5 1021.7 - 0.0
17/10:00pm 20.5 22.2 18.4 88 1.3 SSW 7 9 4 5 1021.5 - 0.0
17/09:30pm 19.9 21.4 17.7 87 1.4 S 6 7 3 4 1021.5 - 0.0
17/09:00pm 20.6 23.6 18.4 87 1.4 CALM 0 0 0 0 1021.5 1021.4 0.0
17/08:30pm 20.9 22.3 17.9 83 1.9 SE 7 9 4 5 1021.4 - 0.0
17/08:00pm 21.6 23.7 18.2 81 2.1 NE 4 7 2 4 1021.3 - 0.0
17/07:30pm 22.0 23.6 18.2 79 2.4 SSE 7 9 4 5 1021.0 - 0.0
17/07:00pm 21.5 24.1 17.5 78 2.5 CALM 0 7 0 4 1020.7 - 0.0
17/06:30pm 21.7 22.9 17.3 76 2.7 ESE 7 9 4 5 1020.4 - 0.0
17/06:00pm 22.3 23.1 17.2 73 3.1 ESE 9 13 5 7 1020.1 1020.0 0.0
17/05:30pm 23.1 23.4 17.1 69 3.7 ESE 11 17 6 9 1019.8 - 0.0
17/05:00pm 24.8 24.0 17.0 62 4.8 ESE 17 22 9 12 1019.6 - 0.0
17/04:30pm 25.4 23.9 16.3 57 5.6 ESE 19 24 10 13 1019.4 - 0.0
17/04:00pm 26.4 24.6 16.0 52 6.4 ESE 20 30 11 16 1019.2 - 0.0
17/03:30pm 26.4 24.1 16.6 55 6.1 ESE 24 32 13 17 1019.1 - 0.0
17/03:00pm 25.9 24.7 17.0 58 5.5 ESE 19 28 10 15 1019.3 1019.2 0.0
17/02:30pm 26.6 25.3 16.8 55 6.1 ESE 19 26 10 14 1019.3 - 0.0
17/02:00pm 26.8 25.1 15.8 51 6.7 ESE 19 30 10 16 1019.4 - 0.0
17/01:30pm 28.7 27.6 17.2 49 7.2 ESE 19 26 10 14 1019.6 - 0.0
17/01:00pm 27.8 27.6 17.6 53 6.4 ENE 15 24 8 13 1020.1 - 0.0
17/12:30pm 28.2 27.8 18.0 54 6.5 ENE 17 24 9 13 1020.5 - 0.0
17/12:00pm 27.0 26.2 18.0 58 5.7 E 19 28 10 15 1021.1 1021.0 0.0
17/11:30am 26.8 25.8 17.6 57 5.8 E 19 28 10 15 1021.6 - 0.0
17/11:00am 25.7 26.8 18.9 66 4.3 SE 11 17 6 9 1022.5 - 0.0
17/10:30am 25.3 27.4 19.4 70 3.8 S 7 13 4 7 1022.8 - 0.0
17/10:00am 24.0 26.8 19.7 77 2.8 WSW 4 7 2 4 1023.2 - 0.0
17/09:30am 21.7 23.8 19.3 86 1.5 NNW 7 11 4 6 1023.7 - 0.0
17/09:04am 21.4 23.7 19.5 89 1.2 NNW 6 9 3 5 1023.9 - 0.0
17/09:00am 21.1 23.6 19.0 88 1.3 N 4 9 2 5 1023.9 1023.8 1.6
17/08:46am 20.3 23.3 18.4 89 1.2 CALM 0 0 0 0 1024.0 - 1.6
17/08:34am 20.1 22.7 18.4 90 1.1 NNE 2 6 1 3 1024.0 - 1.4
17/08:30am 19.9 22.0 18.0 89 1.2 NNE 4 7 2 4 1024.0 - 1.4
17/08:24am 19.9 21.6 18.0 89 1.2 N 6 7 3 4 1023.9 - 1.4
17/08:19am 19.8 21.5 18.1 90 1.1 N 6 7 3 4 1023.9 - 1.4
17/08:00am 19.6 21.5 17.6 88 1.2 NE 4 9 2 5 1023.7 - 1.2
17/07:58am 19.6 21.1 17.6 88 1.2 NE 6 11 3 6 1023.7 - 1.0
17/07:30am 19.7 20.9 17.3 86 1.5 S 7 11 4 6 1023.2 - 0.0
17/07:00am 18.9 19.5 16.7 87 1.3 SSW 9 13 5 7 1022.8 - 0.0
17/06:30am 18.5 18.3 16.7 89 1.1 S 13 15 7 8 1022.5 - 0.0
17/06:00am 18.0 18.1 16.5 91 0.9 SSW 11 15 6 8 1022.2 1022.1 0.0
17/05:30am 17.6 18.0 16.3 92 0.8 SSW 9 11 5 6 1021.8 - 0.0

Other Formats:

Comma delimited format used in spreadsheet applications
http://www.bom.gov.au/fwo/IDQ60801/IDQ60801.94567.axf

JavaScript Object Notation format (JSON) in row-major order
http://www.bom.gov.au/fwo/IDQ60801/IDQ60801.94567.json